sensor_id;sensor_type;location;lat;lon;timestamp;temperature;humidity
74376;HTU21D;62812;55.188;61.302;2024-02-21T00:00:21;-21.01;56.00
74376;HTU21D;62812;55.188;61.302;2024-02-21T00:02:48;-21.06;56.25
74376;HTU21D;62812;55.188;61.302;2024-02-21T00:05:14;-21.08;55.82
74376;HTU21D;62812;55.188;61.302;2024-02-21T00:07:44;-21.14;55.80
74376;HTU21D;62812;55.188;61.302;2024-02-21T00:10:11;-21.17;56.25
74376;HTU21D;62812;55.188;61.302;2024-02-21T00:12:37;-21.22;56.00
74376;HTU21D;62812;55.188;61.302;2024-02-21T00:15:05;-21.26;56.04
74376;HTU21D;62812;55.188;61.302;2024-02-21T00:17:32;-21.27;55.85
74376;HTU21D;62812;55.188;61.302;2024-02-21T00:19:59;-21.27;55.60
74376;HTU21D;62812;55.188;61.302;2024-02-21T00:22:25;-21.33;56.00
74376;HTU21D;62812;55.188;61.302;2024-02-21T00:24:56;-21.40;55.94
74376;HTU21D;62812;55.188;61.302;2024-02-21T00:27:24;-21.42;55.87
74376;HTU21D;62812;55.188;61.302;2024-02-21T00:29:50;-21.44;55.96
74376;HTU21D;62812;55.188;61.302;2024-02-21T00:32:17;-21.49;56.17
74376;HTU21D;62812;55.188;61.302;2024-02-21T00:34:43;-21.53;56.06
74376;HTU21D;62812;55.188;61.302;2024-02-21T00:37:10;-21.58;56.36
74376;HTU21D;62812;55.188;61.302;2024-02-21T00:39:36;-21.53;56.45
74376;HTU21D;62812;55.188;61.302;2024-02-21T00:42:05;-21.47;56.37
74376;HTU21D;62812;55.188;61.302;2024-02-21T00:44:33;-21.41;56.07
74376;HTU21D;62812;55.188;61.302;2024-02-21T00:47:00;-21.41;55.72
74376;HTU21D;62812;55.188;61.302;2024-02-21T00:49:26;-21.43;55.89
74376;HTU21D;62812;55.188;61.302;2024-02-21T00:51:53;-21.41;56.03
74376;HTU21D;62812;55.188;61.302;2024-02-21T00:54:19;-21.38;55.97
74376;HTU21D;62812;55.188;61.302;2024-02-21T00:56:46;-21.40;56.04
74376;HTU21D;62812;55.188;61.302;2024-02-21T00:59:14;-21.41;56.06
74376;HTU21D;62812;55.188;61.302;2024-02-21T01:01:41;-21.27;55.78
74376;HTU21D;62812;55.188;61.302;2024-02-21T01:04:09;-21.22;55.28
74376;HTU21D;62812;55.188;61.302;2024-02-21T01:06:36;-21.21;55.23
74376;HTU21D;62812;55.188;61.302;2024-02-21T01:09:02;-21.16;55.22
74376;HTU21D;62812;55.188;61.302;2024-02-21T01:11:29;-21.05;55.04
74376;HTU21D;62812;55.188;61.302;2024-02-21T01:13:56;-20.98;54.75
74376;HTU21D;62812;55.188;61.302;2024-02-21T01:16:24;-20.94;54.52
74376;HTU21D;62812;55.188;61.302;2024-02-21T01:18:50;-21.06;54.75
74376;HTU21D;62812;55.188;61.302;2024-02-21T01:21:16;-21.10;55.05
74376;HTU21D;62812;55.188;61.302;2024-02-21T01:23:43;-21.16;55.23
74376;HTU21D;62812;55.188;61.302;2024-02-21T01:26:10;-21.31;55.66
74376;HTU21D;62812;55.188;61.302;2024-02-21T01:28:39;-21.45;56.39
74376;HTU21D;62812;55.188;61.302;2024-02-21T01:31:06;-21.51;56.93
74376;HTU21D;62812;55.188;61.302;2024-02-21T01:33:34;-21.58;56.88
74376;HTU21D;62812;55.188;61.302;2024-02-21T01:36:01;-21.67;57.11
74376;HTU21D;62812;55.188;61.302;2024-02-21T01:38:27;-21.68;57.38
74376;HTU21D;62812;55.188;61.302;2024-02-21T01:40:54;-21.70;57.35
74376;HTU21D;62812;55.188;61.302;2024-02-21T01:43:21;-21.64;57.22
74376;HTU21D;62812;55.188;61.302;2024-02-21T01:45:52;-21.60;56.90
74376;HTU21D;62812;55.188;61.302;2024-02-21T01:48:19;-21.62;57.32
74376;HTU21D;62812;55.188;61.302;2024-02-21T01:50:48;-21.64;57.25
74376;HTU21D;62812;55.188;61.302;2024-02-21T01:53:18;-21.68;57.36
74376;HTU21D;62812;55.188;61.302;2024-02-21T01:55:49;-21.66;57.50
74376;HTU21D;62812;55.188;61.302;2024-02-21T01:58:18;-21.62;57.29
74376;HTU21D;62812;55.188;61.302;2024-02-21T02:00:48;-21.60;57.51
74376;HTU21D;62812;55.188;61.302;2024-02-21T02:03:14;-21.59;57.84
74376;HTU21D;62812;55.188;61.302;2024-02-21T02:05:45;-21.56;57.39
74376;HTU21D;62812;55.188;61.302;2024-02-21T02:08:14;-21.49;57.00
74376;HTU21D;62812;55.188;61.302;2024-02-21T02:10:40;-21.47;56.93
74376;HTU21D;62812;55.188;61.302;2024-02-21T02:13:10;-21.46;57.05
74376;HTU21D;62812;55.188;61.302;2024-02-21T02:15:40;-21.44;57.01
74376;HTU21D;62812;55.188;61.302;2024-02-21T02:18:07;-21.39;56.95
74376;HTU21D;62812;55.188;61.302;2024-02-21T02:20:34;-21.32;56.76
74376;HTU21D;62812;55.188;61.302;2024-02-21T02:23:06;-21.17;56.64
74376;HTU21D;62812;55.188;61.302;2024-02-21T02:25:35;-21.14;56.28
74376;HTU21D;62812;55.188;61.302;2024-02-21T02:28:04;-21.20;56.21
74376;HTU21D;62812;55.188;61.302;2024-02-21T02:30:32;-21.21;56.03
74376;HTU21D;62812;55.188;61.302;2024-02-21T02:32:59;-21.33;56.34
74376;HTU21D;62812;55.188;61.302;2024-02-21T02:35:27;-21.51;56.00
74376;HTU21D;62812;55.188;61.302;2024-02-21T02:37:54;-21.69;56.48
74376;HTU21D;62812;55.188;61.302;2024-02-21T02:40:21;-21.77;56.28
74376;HTU21D;62812;55.188;61.302;2024-02-21T02:42:49;-21.77;56.46
74376;HTU21D;62812;55.188;61.302;2024-02-21T02:45:16;-21.76;56.46
74376;HTU21D;62812;55.188;61.302;2024-02-21T02:47:44;-21.77;56.62
74376;HTU21D;62812;55.188;61.302;2024-02-21T02:50:12;-21.81;56.80
74376;HTU21D;62812;55.188;61.302;2024-02-21T02:52:40;-21.86;56.39
74376;HTU21D;62812;55.188;61.302;2024-02-21T02:55:08;-22.01;56.17
74376;HTU21D;62812;55.188;61.302;2024-02-21T02:57:35;-22.05;56.36
74376;HTU21D;62812;55.188;61.302;2024-02-21T03:00:04;-22.11;56.72
74376;HTU21D;62812;55.188;61.302;2024-02-21T03:02:31;-22.14;56.60
74376;HTU21D;62812;55.188;61.302;2024-02-21T03:04:57;-22.11;56.45
74376;HTU21D;62812;55.188;61.302;2024-02-21T03:07:25;-22.18;56.54
74376;HTU21D;62812;55.188;61.302;2024-02-21T03:09:52;-22.20;56.56
74376;HTU21D;62812;55.188;61.302;2024-02-21T03:12:19;-22.30;57.22
74376;HTU21D;62812;55.188;61.302;2024-02-21T03:14:50;-22.38;57.68
74376;HTU21D;62812;55.188;61.302;2024-02-21T03:17:18;-22.47;57.96
74376;HTU21D;62812;55.188;61.302;2024-02-21T03:19:45;-22.43;58.27
74376;HTU21D;62812;55.188;61.302;2024-02-21T03:22:12;-22.46;58.46
74376;HTU21D;62812;55.188;61.302;2024-02-21T03:24:40;-22.45;58.61
74376;HTU21D;62812;55.188;61.302;2024-02-21T03:27:07;-22.47;58.70
74376;HTU21D;62812;55.188;61.302;2024-02-21T03:29:33;-22.50;58.09
74376;HTU21D;62812;55.188;61.302;2024-02-21T03:32:00;-22.54;58.08
74376;HTU21D;62812;55.188;61.302;2024-02-21T03:34:28;-22.53;57.49
74376;HTU21D;62812;55.188;61.302;2024-02-21T03:36:54;-22.48;58.15
74376;HTU21D;62812;55.188;61.302;2024-02-21T03:39:23;-22.41;58.87
74376;HTU21D;62812;55.188;61.302;2024-02-21T03:41:52;-22.28;58.79
74376;HTU21D;62812;55.188;61.302;2024-02-21T03:44:22;-22.14;58.56
74376;HTU21D;62812;55.188;61.302;2024-02-21T03:46:55;-21.99;58.41
74376;HTU21D;62812;55.188;61.302;2024-02-21T03:49:21;-21.85;58.10
74376;HTU21D;62812;55.188;61.302;2024-02-21T03:51:50;-21.62;57.74
74376;HTU21D;62812;55.188;61.302;2024-02-21T03:54:16;-21.45;57.05
74376;HTU21D;62812;55.188;61.302;2024-02-21T03:56:43;-21.33;57.02
74376;HTU21D;62812;55.188;61.302;2024-02-21T03:59:10;-21.16;56.55
74376;HTU21D;62812;55.188;61.302;2024-02-21T04:01:37;-21.03;56.28
74376;HTU21D;62812;55.188;61.302;2024-02-21T04:04:04;-20.88;55.98
74376;HTU21D;62812;55.188;61.302;2024-02-21T04:06:31;-20.70;55.16
74376;HTU21D;62812;55.188;61.302;2024-02-21T04:08:59;-20.47;55.07
74376;HTU21D;62812;55.188;61.302;2024-02-21T04:11:25;-20.14;54.33
74376;HTU21D;62812;55.188;61.302;2024-02-21T04:13:52;-19.94;53.27
74376;HTU21D;62812;55.188;61.302;2024-02-21T04:16:18;-19.65;52.75
74376;HTU21D;62812;55.188;61.302;2024-02-21T04:18:45;-19.46;51.32
74376;HTU21D;62812;55.188;61.302;2024-02-21T04:21:14;-19.42;50.05
74376;HTU21D;62812;55.188;61.302;2024-02-21T04:23:42;-19.72;49.87
74376;HTU21D;62812;55.188;61.302;2024-02-21T04:26:15;-19.73;50.35
74376;HTU21D;62812;55.188;61.302;2024-02-21T04:28:41;-19.80;50.11
74376;HTU21D;62812;55.188;61.302;2024-02-21T04:31:08;-19.69;50.10
74376;HTU21D;62812;55.188;61.302;2024-02-21T04:33:35;-19.57;50.43
74376;HTU21D;62812;55.188;61.302;2024-02-21T04:36:02;-19.39;49.31
74376;HTU21D;62812;55.188;61.302;2024-02-21T04:38:28;-19.29;54.82
74376;HTU21D;62812;55.188;61.302;2024-02-21T04:40:55;-19.10;52.85
74376;HTU21D;62812;55.188;61.302;2024-02-21T04:43:26;-18.64;55.56
74376;HTU21D;62812;55.188;61.302;2024-02-21T04:45:53;-18.43;48.02
74376;HTU21D;62812;55.188;61.302;2024-02-21T04:48:20;-18.54;46.89
74376;HTU21D;62812;55.188;61.302;2024-02-21T04:50:47;-18.45;51.40
74376;HTU21D;62812;55.188;61.302;2024-02-21T04:53:13;-18.44;47.20
74376;HTU21D;62812;55.188;61.302;2024-02-21T04:55:42;-18.36;50.22
74376;HTU21D;62812;55.188;61.302;2024-02-21T04:58:09;-18.27;49.66
74376;HTU21D;62812;55.188;61.302;2024-02-21T05:00:37;-18.27;47.58
74376;HTU21D;62812;55.188;61.302;2024-02-21T05:03:04;-18.26;47.68
74376;HTU21D;62812;55.188;61.302;2024-02-21T05:05:31;-18.17;47.16
74376;HTU21D;62812;55.188;61.302;2024-02-21T05:07:58;-18.13;47.10
74376;HTU21D;62812;55.188;61.302;2024-02-21T05:10:25;-18.15;46.57
74376;HTU21D;62812;55.188;61.302;2024-02-21T05:12:51;-18.22;47.24
74376;HTU21D;62812;55.188;61.302;2024-02-21T05:15:18;-18.27;47.68
74376;HTU21D;62812;55.188;61.302;2024-02-21T05:17:48;-18.37;47.57
74376;HTU21D;62812;55.188;61.302;2024-02-21T05:20:16;-18.41;48.20
74376;HTU21D;62812;55.188;61.302;2024-02-21T05:22:43;-18.24;48.32
74376;HTU21D;62812;55.188;61.302;2024-02-21T05:25:09;-18.20;47.92
74376;HTU21D;62812;55.188;61.302;2024-02-21T05:27:36;-18.00;46.86
74376;HTU21D;62812;55.188;61.302;2024-02-21T05:30:05;-18.09;47.22
74376;HTU21D;62812;55.188;61.302;2024-02-21T05:32:33;-17.98;47.14
74376;HTU21D;62812;55.188;61.302;2024-02-21T05:35:01;-18.11;46.85
74376;HTU21D;62812;55.188;61.302;2024-02-21T05:37:28;-18.09;47.71
74376;HTU21D;62812;55.188;61.302;2024-02-21T05:39:54;-18.14;47.23
74376;HTU21D;62812;55.188;61.302;2024-02-21T05:42:21;-18.17;47.91
74376;HTU21D;62812;55.188;61.302;2024-02-21T05:44:48;-18.24;48.21
74376;HTU21D;62812;55.188;61.302;2024-02-21T05:47:15;-18.13;49.09
74376;HTU21D;62812;55.188;61.302;2024-02-21T05:49:41;-17.99;48.73
74376;HTU21D;62812;55.188;61.302;2024-02-21T05:52:09;-17.85;49.08
74376;HTU21D;62812;55.188;61.302;2024-02-21T05:54:38;-17.70;48.11
74376;HTU21D;62812;55.188;61.302;2024-02-21T05:57:07;-17.69;48.07
74376;HTU21D;62812;55.188;61.302;2024-02-21T05:59:34;-17.66;47.63
74376;HTU21D;62812;55.188;61.302;2024-02-21T06:02:06;-17.56;47.63
74376;HTU21D;62812;55.188;61.302;2024-02-21T06:04:33;-17.60;47.15
74376;HTU21D;62812;55.188;61.302;2024-02-21T06:07:00;-17.47;47.50
74376;HTU21D;62812;55.188;61.302;2024-02-21T06:09:30;-17.50;46.96
74376;HTU21D;62812;55.188;61.302;2024-02-21T06:12:02;-17.50;48.02
74376;HTU21D;62812;55.188;61.302;2024-02-21T06:14:28;-17.43;47.79
74376;HTU21D;62812;55.188;61.302;2024-02-21T06:16:56;-17.39;48.12
74376;HTU21D;62812;55.188;61.302;2024-02-21T06:19:23;-17.41;47.57
74376;HTU21D;62812;55.188;61.302;2024-02-21T06:21:53;-17.38;47.97
74376;HTU21D;62812;55.188;61.302;2024-02-21T06:24:20;-17.02;47.54
74376;HTU21D;62812;55.188;61.302;2024-02-21T06:27:04;-16.86;47.47
74376;HTU21D;62812;55.188;61.302;2024-02-21T06:29:33;-16.70;46.75
74376;HTU21D;62812;55.188;61.302;2024-02-21T06:32:00;-16.57;46.18
74376;HTU21D;62812;55.188;61.302;2024-02-21T06:34:30;-16.46;45.82
74376;HTU21D;62812;55.188;61.302;2024-02-21T06:36:57;-16.43;46.38
74376;HTU21D;62812;55.188;61.302;2024-02-21T06:39:24;-16.57;46.30
74376;HTU21D;62812;55.188;61.302;2024-02-21T06:41:50;-16.67;46.79
74376;HTU21D;62812;55.188;61.302;2024-02-21T06:44:19;-16.69;47.31
74376;HTU21D;62812;55.188;61.302;2024-02-21T06:46:46;-16.87;48.15
74376;HTU21D;62812;55.188;61.302;2024-02-21T06:49:13;-16.91;49.16
74376;HTU21D;62812;55.188;61.302;2024-02-21T06:51:42;-16.85;48.37
74376;HTU21D;62812;55.188;61.302;2024-02-21T06:54:09;-16.89;49.11
74376;HTU21D;62812;55.188;61.302;2024-02-21T06:56:46;-16.99;48.97
74376;HTU21D;62812;55.188;61.302;2024-02-21T06:59:19;-17.04;49.72
74376;HTU21D;62812;55.188;61.302;2024-02-21T07:01:46;-16.98;49.59
74376;HTU21D;62812;55.188;61.302;2024-02-21T07:04:13;-16.94;49.71
74376;HTU21D;62812;55.188;61.302;2024-02-21T07:06:40;-16.83;49.50
74376;HTU21D;62812;55.188;61.302;2024-02-21T07:09:06;-16.72;49.81
74376;HTU21D;62812;55.188;61.302;2024-02-21T07:11:34;-16.64;49.92
74376;HTU21D;62812;55.188;61.302;2024-02-21T07:14:04;-16.52;49.14
74376;HTU21D;62812;55.188;61.302;2024-02-21T07:16:33;-16.43;48.92
74376;HTU21D;62812;55.188;61.302;2024-02-21T07:19:00;-16.34;48.85
74376;HTU21D;62812;55.188;61.302;2024-02-21T07:21:29;-16.32;48.57
74376;HTU21D;62812;55.188;61.302;2024-02-21T07:23:56;-16.18;48.19
74376;HTU21D;62812;55.188;61.302;2024-02-21T07:26:22;-16.00;47.65
74376;HTU21D;62812;55.188;61.302;2024-02-21T07:28:49;-16.07;47.63
74376;HTU21D;62812;55.188;61.302;2024-02-21T07:31:19;-16.25;48.94
74376;HTU21D;62812;55.188;61.302;2024-02-21T07:33:51;-16.32;48.81
74376;HTU21D;62812;55.188;61.302;2024-02-21T07:36:29;-16.32;49.53
74376;HTU21D;62812;55.188;61.302;2024-02-21T07:39:00;-16.05;49.08
74376;HTU21D;62812;55.188;61.302;2024-02-21T07:41:32;-15.74;47.16
74376;HTU21D;62812;55.188;61.302;2024-02-21T07:44:02;-15.55;46.74
74376;HTU21D;62812;55.188;61.302;2024-02-21T07:46:35;-15.46;46.39
74376;HTU21D;62812;55.188;61.302;2024-02-21T07:49:03;-15.34;46.58
74376;HTU21D;62812;55.188;61.302;2024-02-21T07:51:30;-15.31;46.12
74376;HTU21D;62812;55.188;61.302;2024-02-21T07:53:57;-15.34;46.04
74376;HTU21D;62812;55.188;61.302;2024-02-21T07:56:27;-15.37;47.19
74376;HTU21D;62812;55.188;61.302;2024-02-21T07:58:55;-15.31;47.34
74376;HTU21D;62812;55.188;61.302;2024-02-21T08:01:22;-15.24;46.41
74376;HTU21D;62812;55.188;61.302;2024-02-21T08:03:51;-15.14;45.94
74376;HTU21D;62812;55.188;61.302;2024-02-21T08:06:21;-15.00;46.35
74376;HTU21D;62812;55.188;61.302;2024-02-21T08:08:47;-14.81;45.96
74376;HTU21D;62812;55.188;61.302;2024-02-21T08:11:14;-14.79;44.74
74376;HTU21D;62812;55.188;61.302;2024-02-21T08:13:42;-14.79;44.74
74376;HTU21D;62812;55.188;61.302;2024-02-21T08:16:08;-14.73;45.17
74376;HTU21D;62812;55.188;61.302;2024-02-21T08:18:35;-14.61;44.41
74376;HTU21D;62812;55.188;61.302;2024-02-21T08:21:04;-14.29;45.00
74376;HTU21D;62812;55.188;61.302;2024-02-21T08:23:34;-14.00;43.54
74376;HTU21D;62812;55.188;61.302;2024-02-21T08:26:03;-14.01;42.82
74376;HTU21D;62812;55.188;61.302;2024-02-21T08:28:30;-14.02;43.13
74376;HTU21D;62812;55.188;61.302;2024-02-21T08:30:56;-13.91;42.52
74376;HTU21D;62812;55.188;61.302;2024-02-21T08:33:25;-13.82;43.91
74376;HTU21D;62812;55.188;61.302;2024-02-21T08:35:59;-13.67;43.12
74376;HTU21D;62812;55.188;61.302;2024-02-21T08:38:28;-13.55;42.32
74376;HTU21D;62812;55.188;61.302;2024-02-21T08:40:57;-13.63;43.02
74376;HTU21D;62812;55.188;61.302;2024-02-21T08:43:24;-13.61;43.24
74376;HTU21D;62812;55.188;61.302;2024-02-21T08:45:51;-13.55;42.46
74376;HTU21D;62812;55.188;61.302;2024-02-21T08:48:20;-13.57;42.36
74376;HTU21D;62812;55.188;61.302;2024-02-21T08:50:52;-13.45;43.04
74376;HTU21D;62812;55.188;61.302;2024-02-21T08:53:20;-13.30;42.19
74376;HTU21D;62812;55.188;61.302;2024-02-21T08:55:50;-13.26;40.95
74376;HTU21D;62812;55.188;61.302;2024-02-21T08:58:19;-13.38;41.66
74376;HTU21D;62812;55.188;61.302;2024-02-21T09:00:47;-13.60;42.05
74376;HTU21D;62812;55.188;61.302;2024-02-21T09:03:14;-13.40;42.97
74376;HTU21D;62812;55.188;61.302;2024-02-21T09:05:42;-13.17;42.70
74376;HTU21D;62812;55.188;61.302;2024-02-21T09:08:09;-13.13;41.41
74376;HTU21D;62812;55.188;61.302;2024-02-21T09:10:39;-13.12;41.18
74376;HTU21D;62812;55.188;61.302;2024-02-21T09:13:07;-13.23;41.46
74376;HTU21D;62812;55.188;61.302;2024-02-21T09:15:36;-13.39;41.82
74376;HTU21D;62812;55.188;61.302;2024-02-21T09:18:03;-13.52;43.06
74376;HTU21D;62812;55.188;61.302;2024-02-21T09:20:29;-13.54;43.16
74376;HTU21D;62812;55.188;61.302;2024-02-21T09:22:57;-13.49;43.22
74376;HTU21D;62812;55.188;61.302;2024-02-21T09:25:23;-13.42;43.22
74376;HTU21D;62812;55.188;61.302;2024-02-21T09:27:50;-13.29;43.40
74376;HTU21D;62812;55.188;61.302;2024-02-21T09:30:18;-13.21;42.82
74376;HTU21D;62812;55.188;61.302;2024-02-21T09:32:51;-13.24;41.62
74376;HTU21D;62812;55.188;61.302;2024-02-21T09:35:17;-13.39;41.90
74376;HTU21D;62812;55.188;61.302;2024-02-21T09:37:44;-13.40;42.75
74376;HTU21D;62812;55.188;61.302;2024-02-21T09:40:17;-13.33;43.80
74376;HTU21D;62812;55.188;61.302;2024-02-21T09:42:55;-13.31;42.56
74376;HTU21D;62812;55.188;61.302;2024-02-21T09:45:28;-13.30;42.96
74376;HTU21D;62812;55.188;61.302;2024-02-21T09:48:11;-13.26;42.31
74376;HTU21D;62812;55.188;61.302;2024-02-21T09:50:44;-13.25;42.65
74376;HTU21D;62812;55.188;61.302;2024-02-21T09:53:13;-13.30;42.63
74376;HTU21D;62812;55.188;61.302;2024-02-21T09:55:48;-13.36;42.84
74376;HTU21D;62812;55.188;61.302;2024-02-21T09:58:15;-13.40;43.34
74376;HTU21D;62812;55.188;61.302;2024-02-21T10:00:44;-13.38;43.58
74376;HTU21D;62812;55.188;61.302;2024-02-21T10:03:13;-13.42;44.37
74376;HTU21D;62812;55.188;61.302;2024-02-21T10:05:48;-13.37;44.20
74376;HTU21D;62812;55.188;61.302;2024-02-21T10:08:19;-13.37;43.98
74376;HTU21D;62812;55.188;61.302;2024-02-21T10:10:49;-13.15;44.43
74376;HTU21D;62812;55.188;61.302;2024-02-21T10:13:29;-12.91;42.99
74376;HTU21D;62812;55.188;61.302;2024-02-21T10:16:03;-12.70;42.80
74376;HTU21D;62812;55.188;61.302;2024-02-21T10:18:31;-12.52;41.36
74376;HTU21D;62812;55.188;61.302;2024-02-21T10:21:02;-12.35;40.78
74376;HTU21D;62812;55.188;61.302;2024-02-21T10:23:43;-12.32;39.10
74376;HTU21D;62812;55.188;61.302;2024-02-21T10:26:13;-12.43;40.28
74376;HTU21D;62812;55.188;61.302;2024-02-21T10:28:42;-12.59;41.28
74376;HTU21D;62812;55.188;61.302;2024-02-21T10:31:22;-12.73;42.01
74376;HTU21D;62812;55.188;61.302;2024-02-21T10:33:59;-12.88;41.47
74376;HTU21D;62812;55.188;61.302;2024-02-21T10:36:29;-12.95;42.01
74376;HTU21D;62812;55.188;61.302;2024-02-21T10:39:05;-12.98;42.22
74376;HTU21D;62812;55.188;61.302;2024-02-21T10:41:34;-12.95;42.68
74376;HTU21D;62812;55.188;61.302;2024-02-21T10:44:05;-12.94;42.31
74376;HTU21D;62812;55.188;61.302;2024-02-21T10:46:32;-12.88;42.93
74376;HTU21D;62812;55.188;61.302;2024-02-21T10:49:09;-12.84;42.15
74376;HTU21D;62812;55.188;61.302;2024-02-21T10:51:42;-12.88;42.39
74376;HTU21D;62812;55.188;61.302;2024-02-21T10:54:17;-12.87;41.45
74376;HTU21D;62812;55.188;61.302;2024-02-21T10:56:55;-12.94;41.45
74376;HTU21D;62812;55.188;61.302;2024-02-21T10:59:37;-12.99;41.71
74376;HTU21D;62812;55.188;61.302;2024-02-21T11:02:04;-13.02;41.81
74376;HTU21D;62812;55.188;61.302;2024-02-21T11:04:34;-13.06;42.20
74376;HTU21D;62812;55.188;61.302;2024-02-21T11:07:06;-13.09;42.36
74376;HTU21D;62812;55.188;61.302;2024-02-21T11:09:33;-13.09;42.19
74376;HTU21D;62812;55.188;61.302;2024-02-21T11:12:02;-13.09;42.49
74376;HTU21D;62812;55.188;61.302;2024-02-21T11:14:37;-12.99;41.28
74376;HTU21D;62812;55.188;61.302;2024-02-21T11:17:14;-13.06;41.65
74376;HTU21D;62812;55.188;61.302;2024-02-21T11:19:43;-13.08;42.08
74376;HTU21D;62812;55.188;61.302;2024-02-21T11:22:15;-13.09;41.38
74376;HTU21D;62812;55.188;61.302;2024-02-21T11:24:45;-13.13;41.70
74376;HTU21D;62812;55.188;61.302;2024-02-21T11:27:21;-13.14;41.83
74376;HTU21D;62812;55.188;61.302;2024-02-21T11:29:58;-13.13;42.16
74376;HTU21D;62812;55.188;61.302;2024-02-21T11:32:26;-13.17;41.16
74376;HTU21D;62812;55.188;61.302;2024-02-21T11:34:57;-13.10;43.00
74376;HTU21D;62812;55.188;61.302;2024-02-21T11:37:28;-13.01;42.10
74376;HTU21D;62812;55.188;61.302;2024-02-21T11:39:57;-12.92;39.91
74376;HTU21D;62812;55.188;61.302;2024-02-21T11:42:27;-12.79;40.93
74376;HTU21D;62812;55.188;61.302;2024-02-21T11:44:55;-12.83;39.01
74376;HTU21D;62812;55.188;61.302;2024-02-21T11:47:25;-12.92;39.56
74376;HTU21D;62812;55.188;61.302;2024-02-21T11:49:53;-12.96;39.13
74376;HTU21D;62812;55.188;61.302;2024-02-21T11:52:26;-12.94;40.59
74376;HTU21D;62812;55.188;61.302;2024-02-21T11:54:54;-12.83;39.88
74376;HTU21D;62812;55.188;61.302;2024-02-21T11:57:24;-12.78;38.98
74376;HTU21D;62812;55.188;61.302;2024-02-21T11:59:55;-12.77;39.75
74376;HTU21D;62812;55.188;61.302;2024-02-21T12:02:23;-12.86;38.04
74376;HTU21D;62812;55.188;61.302;2024-02-21T12:04:51;-12.94;38.91
74376;HTU21D;62812;55.188;61.302;2024-02-21T12:07:18;-13.15;39.03
74376;HTU21D;62812;55.188;61.302;2024-02-21T12:09:47;-13.37;40.04
74376;HTU21D;62812;55.188;61.302;2024-02-21T12:12:20;-13.54;41.06
74376;HTU21D;62812;55.188;61.302;2024-02-21T12:14:55;-13.63;40.89
74376;HTU21D;62812;55.188;61.302;2024-02-21T12:17:30;-13.82;41.22
74376;HTU21D;62812;55.188;61.302;2024-02-21T12:19:57;-13.98;41.43
74376;HTU21D;62812;55.188;61.302;2024-02-21T12:22:35;-14.22;41.43
74376;HTU21D;62812;55.188;61.302;2024-02-21T12:25:16;-14.35;41.87
74376;HTU21D;62812;55.188;61.302;2024-02-21T12:27:46;-14.47;42.00
74376;HTU21D;62812;55.188;61.302;2024-02-21T12:30:20;-14.59;42.26
74376;HTU21D;62812;55.188;61.302;2024-02-21T12:32:56;-14.69;42.66
74376;HTU21D;62812;55.188;61.302;2024-02-21T12:35:24;-14.82;42.42
74376;HTU21D;62812;55.188;61.302;2024-02-21T12:37:54;-14.78;43.07
74376;HTU21D;62812;55.188;61.302;2024-02-21T12:40:31;-14.80;43.26
74376;HTU21D;62812;55.188;61.302;2024-02-21T12:42:59;-14.82;43.19
74376;HTU21D;62812;55.188;61.302;2024-02-21T12:45:29;-14.95;43.68
74376;HTU21D;62812;55.188;61.302;2024-02-21T12:47:56;-15.01;43.58
74376;HTU21D;62812;55.188;61.302;2024-02-21T12:50:27;-15.05;43.65
74376;HTU21D;62812;55.188;61.302;2024-02-21T12:52:54;-15.13;43.71
74376;HTU21D;62812;55.188;61.302;2024-02-21T12:55:20;-15.26;43.81
74376;HTU21D;62812;55.188;61.302;2024-02-21T12:57:49;-15.36;43.94
74376;HTU21D;62812;55.188;61.302;2024-02-21T13:00:18;-15.47;44.47
74376;HTU21D;62812;55.188;61.302;2024-02-21T13:02:44;-15.60;44.22
74376;HTU21D;62812;55.188;61.302;2024-02-21T13:05:18;-15.67;44.54
74376;HTU21D;62812;55.188;61.302;2024-02-21T13:07:46;-15.68;44.78
74376;HTU21D;62812;55.188;61.302;2024-02-21T13:10:15;-15.76;45.12
74376;HTU21D;62812;55.188;61.302;2024-02-21T13:12:42;-15.87;45.37
74376;HTU21D;62812;55.188;61.302;2024-02-21T13:15:11;-15.91;45.33
74376;HTU21D;62812;55.188;61.302;2024-02-21T13:17:39;-15.95;45.70
74376;HTU21D;62812;55.188;61.302;2024-02-21T13:20:09;-15.99;45.73
74376;HTU21D;62812;55.188;61.302;2024-02-21T13:22:36;-16.06;45.85
74376;HTU21D;62812;55.188;61.302;2024-02-21T13:25:03;-16.13;46.14
74376;HTU21D;62812;55.188;61.302;2024-02-21T13:27:33;-16.21;46.27
74376;HTU21D;62812;55.188;61.302;2024-02-21T13:30:03;-16.28;46.70
74376;HTU21D;62812;55.188;61.302;2024-02-21T13:32:36;-16.41;47.16
74376;HTU21D;62812;55.188;61.302;2024-02-21T13:35:03;-16.49;47.34
74376;HTU21D;62812;55.188;61.302;2024-02-21T13:37:31;-16.56;47.18
74376;HTU21D;62812;55.188;61.302;2024-02-21T13:39:58;-16.57;47.31
74376;HTU21D;62812;55.188;61.302;2024-02-21T13:42:25;-16.53;47.38
74376;HTU21D;62812;55.188;61.302;2024-02-21T13:44:57;-16.53;46.80
74376;HTU21D;62812;55.188;61.302;2024-02-21T13:47:23;-16.61;46.92
74376;HTU21D;62812;55.188;61.302;2024-02-21T13:49:53;-16.68;47.05
74376;HTU21D;62812;55.188;61.302;2024-02-21T13:52:21;-16.68;47.18
74376;HTU21D;62812;55.188;61.302;2024-02-21T13:54:49;-16.74;47.22
74376;HTU21D;62812;55.188;61.302;2024-02-21T13:57:16;-16.80;47.74
74376;HTU21D;62812;55.188;61.302;2024-02-21T13:59:45;-16.87;47.62
74376;HTU21D;62812;55.188;61.302;2024-02-21T14:02:15;-16.96;48.12
74376;HTU21D;62812;55.188;61.302;2024-02-21T14:04:46;-16.99;48.05
74376;HTU21D;62812;55.188;61.302;2024-02-21T14:07:17;-17.02;48.37
74376;HTU21D;62812;55.188;61.302;2024-02-21T14:09:45;-17.06;48.67
74376;HTU21D;62812;55.188;61.302;2024-02-21T14:12:12;-17.08;49.00
74376;HTU21D;62812;55.188;61.302;2024-02-21T14:14:39;-17.03;49.26
74376;HTU21D;62812;55.188;61.302;2024-02-21T14:17:06;-16.98;49.11
74376;HTU21D;62812;55.188;61.302;2024-02-21T14:19:33;-17.04;49.12
74376;HTU21D;62812;55.188;61.302;2024-02-21T14:22:01;-17.11;49.02
74376;HTU21D;62812;55.188;61.302;2024-02-21T14:24:31;-17.12;49.38
74376;HTU21D;62812;55.188;61.302;2024-02-21T14:26:58;-17.14;49.80
74376;HTU21D;62812;55.188;61.302;2024-02-21T14:29:26;-17.17;49.76
74376;HTU21D;62812;55.188;61.302;2024-02-21T14:31:52;-17.11;49.77
74376;HTU21D;62812;55.188;61.302;2024-02-21T14:34:19;-17.13;49.87
74376;HTU21D;62812;55.188;61.302;2024-02-21T14:36:46;-17.03;49.75
74376;HTU21D;62812;55.188;61.302;2024-02-21T14:39:13;-17.01;49.77
74376;HTU21D;62812;55.188;61.302;2024-02-21T14:41:41;-17.20;50.36
74376;HTU21D;62812;55.188;61.302;2024-02-21T14:44:08;-17.35;50.58
74376;HTU21D;62812;55.188;61.302;2024-02-21T14:46:37;-17.25;50.93
74376;HTU21D;62812;55.188;61.302;2024-02-21T14:49:06;-17.16;50.14
74376;HTU21D;62812;55.188;61.302;2024-02-21T14:51:41;-17.02;49.68
74376;HTU21D;62812;55.188;61.302;2024-02-21T14:54:09;-17.23;50.24
74376;HTU21D;62812;55.188;61.302;2024-02-21T14:56:36;-17.35;50.56